Portada
METAR-TAF:

METAR-TAF

Aeroports :

Hartness State Airport

Springfield, Vermont, Estats Units d'Amèrica

latitud: 43-20-33N, longitud: 072-31-18W, altitud: 175 m

Observació

L'informe es va fer fa 1 hora i 4 minuts, a les 10:54 UTC
Vent calma
Temperatura 9°C
Humitat 93%
Pressió 1025 hPa
Visibilitat: 16.1 km
Núvols disperses a una alçada de 3000 ft

METAR: KVSF 221054Z AUTO 00000KT 10SM SCT030 09/08 A3026 RMK AO2 SLP249 T00890078

Hora: 07:58 (11:58 UTC)


TAF: manca

Observacions i pronòstics meteorològics de més de 4000 aeroports (METAR i TAF).

Les estacions disponibles són els punts grocs i vermells al mapa.

Posi el ratolí al punt desitjat per veure el nom de l'estació.

Feu clic per veure les observacions i els pronòstics meteorològics.

Per canviar el mapa: feu clic els botons verds amb una creu de color negre per apropar; al botó verd amb un guió per allunyar la imatge; o en les fletxes verdes per a mapes adjacents.


METAR-TAF: